createdAt,value
2017-11-27T00:02:03.998Z,4.84
2017-11-27T00:04:31.536Z,4.79
2017-11-27T00:07:00.416Z,4.86
2017-11-27T00:09:28.902Z,4.76
2017-11-27T00:11:56.466Z,5.06
2017-11-27T00:14:24.814Z,4.88
2017-11-27T00:16:53.114Z,4.92
2017-11-27T00:19:21.414Z,4.70
2017-11-27T00:21:49.364Z,4.94
2017-11-27T00:24:17.126Z,4.94
2017-11-27T00:26:45.709Z,4.85
2017-11-27T00:29:14.498Z,4.81
2017-11-27T00:31:44.590Z,5.03
2017-11-27T00:34:12.276Z,5.07
2017-11-27T00:36:41.576Z,4.93
2017-11-27T00:39:10.296Z,4.98
2017-11-27T00:41:38.326Z,5.20
2017-11-27T00:44:06.832Z,4.87
2017-11-27T00:46:35.093Z,5.03
2017-11-27T00:49:04.084Z,4.96
2017-11-27T00:51:32.155Z,5.05
2017-11-27T00:54:00.249Z,5.14
2017-11-27T00:56:31.165Z,5.03
2017-11-27T00:58:59.133Z,5.10
2017-11-27T01:01:28.331Z,5.11
2017-11-27T01:03:55.879Z,5.07
2017-11-27T01:06:23.958Z,5.03
2017-11-27T01:08:51.478Z,4.97
2017-11-27T01:11:18.993Z,4.92
2017-11-27T01:13:46.550Z,5.05
2017-11-27T01:16:14.312Z,4.64
2017-11-27T01:18:41.954Z,4.67
2017-11-27T01:21:10.854Z,4.85
2017-11-27T01:23:38.618Z,4.75
2017-11-27T01:26:08.403Z,4.75
2017-11-27T01:28:37.831Z,4.67
2017-11-27T01:31:05.705Z,4.70
2017-11-27T01:33:33.902Z,4.86
2017-11-27T01:36:01.985Z,4.68
2017-11-27T01:38:30.443Z,4.71
2017-11-27T01:40:57.962Z,5.04
2017-11-27T01:43:25.513Z,4.92
2017-11-27T01:45:53.037Z,4.70
2017-11-27T01:48:20.557Z,4.95
2017-11-27T01:50:48.332Z,4.72
2017-11-27T01:53:15.878Z,4.95
2017-11-27T01:55:43.475Z,4.72
2017-11-27T01:58:11.815Z,4.78
2017-11-27T02:00:39.685Z,4.67
2017-11-27T02:03:07.312Z,4.89
2017-11-27T02:05:35.516Z,4.93
2017-11-27T02:08:03.179Z,4.50
2017-11-27T02:10:30.688Z,4.79
2017-11-27T02:12:58.244Z,4.60
2017-11-27T02:15:25.765Z,4.67
2017-11-27T02:17:53.314Z,4.61
2017-11-27T02:20:20.989Z,4.59
2017-11-27T02:22:49.660Z,4.60
2017-11-27T02:25:17.220Z,4.56
2017-11-27T02:27:44.792Z,4.59
2017-11-27T02:30:12.350Z,4.38
2017-11-27T02:32:39.872Z,4.64
2017-11-27T02:35:07.475Z,4.11
2017-11-27T02:37:34.985Z,4.24
2017-11-27T02:40:02.500Z,4.10
2017-11-27T02:42:30.952Z,3.79
2017-11-27T02:44:58.475Z,3.82
2017-11-27T02:47:26.004Z,3.64
2017-11-27T02:49:53.732Z,3.93
2017-11-27T02:52:21.244Z,3.88
2017-11-27T02:54:48.770Z,3.91
2017-11-27T02:57:16.492Z,3.89
2017-11-27T02:59:44.013Z,3.99
2017-11-27T03:02:11.528Z,3.81
2017-11-27T03:04:39.300Z,3.92
2017-11-27T03:07:06.849Z,3.63
2017-11-27T03:09:34.411Z,4.05
2017-11-27T03:12:02.203Z,3.90
2017-11-27T03:14:29.833Z,3.96
2017-11-27T03:16:57.383Z,3.74
2017-11-27T03:19:24.941Z,3.72
2017-11-27T03:21:52.459Z,3.63
2017-11-27T03:24:19.993Z,3.69
2017-11-27T03:26:47.733Z,3.69
2017-11-27T03:29:15.292Z,3.74
2017-11-27T03:31:42.848Z,3.62
2017-11-27T03:34:11.328Z,3.87
2017-11-27T03:36:38.893Z,3.75
2017-11-27T03:39:06.408Z,3.74
2017-11-27T03:44:00.856Z,3.73
2017-11-27T03:46:28.410Z,3.57
2017-11-27T03:48:56.288Z,3.87
2017-11-27T03:51:23.837Z,3.75
2017-11-27T03:53:51.351Z,3.63
2017-11-27T03:56:19.044Z,3.55
2017-11-27T03:58:46.557Z,3.48
2017-11-27T04:01:14.080Z,3.29
2017-11-27T04:03:41.661Z,3.39
2017-11-27T04:06:09.179Z,3.26
2017-11-27T04:08:36.782Z,3.16
2017-11-27T04:11:04.340Z,3.49
2017-11-27T04:13:31.866Z,3.52
2017-11-27T04:15:59.429Z,3.38
2017-11-27T04:18:27.195Z,3.33
2017-11-27T04:20:54.792Z,3.37
2017-11-27T04:23:22.316Z,3.30
2017-11-27T04:25:50.276Z,3.20
2017-11-27T04:28:17.785Z,3.35
2017-11-27T04:30:45.304Z,3.40
2017-11-27T04:33:13.143Z,3.66
2017-11-27T04:35:40.717Z,3.68
2017-11-27T04:38:08.228Z,4.02
2017-11-27T04:40:35.769Z,4.01
2017-11-27T04:43:03.291Z,3.96
2017-11-27T04:45:30.874Z,4.08
2017-11-27T04:47:58.599Z,4.17
2017-11-27T04:50:26.116Z,3.89
2017-11-27T04:52:53.638Z,3.96
2017-11-27T04:55:21.396Z,3.88
2017-11-27T04:57:48.952Z,3.77
2017-11-27T05:00:16.528Z,4.07
2017-11-27T05:02:44.480Z,3.77
2017-11-27T05:05:12.188Z,3.91
2017-11-27T05:07:39.701Z,3.92
2017-11-27T05:10:07.572Z,3.84
2017-11-27T05:12:35.175Z,3.88
2017-11-27T05:15:02.696Z,3.91
2017-11-27T05:17:30.351Z,3.83
2017-11-27T05:19:57.857Z,4.10
2017-11-27T05:22:25.367Z,4.16
2017-11-27T05:24:53.228Z,4.29
2017-11-27T05:27:20.739Z,4.19
2017-11-27T05:29:48.252Z,4.26
2017-11-27T05:32:16.009Z,4.20
2017-11-27T05:34:43.568Z,4.21
2017-11-27T05:39:37.981Z,4.17
2017-11-27T05:42:05.530Z,4.36
2017-11-27T05:44:33.045Z,3.85
2017-11-27T05:47:00.857Z,4.20
2017-11-27T05:49:28.411Z,4.34
2017-11-27T05:51:55.979Z,4.04
2017-11-27T05:54:23.947Z,3.86
2017-11-27T05:56:51.457Z,4.14
2017-11-27T05:59:18.979Z,4.02
2017-11-27T06:01:46.700Z,4.21
2017-11-27T06:04:14.313Z,3.86
2017-11-27T06:06:41.834Z,3.99
2017-11-27T06:09:09.579Z,4.09
2017-11-27T06:11:37.094Z,3.95
2017-11-27T06:14:04.614Z,4.13
2017-11-27T06:16:32.176Z,4.12
2017-11-27T06:18:59.744Z,4.10
2017-11-27T06:21:27.292Z,4.17
2017-11-27T06:23:54.852Z,4.10
2017-11-27T06:26:22.409Z,4.14
2017-11-27T06:28:49.971Z,4.33
2017-11-27T06:31:17.529Z,4.39
2017-11-27T06:33:45.088Z,4.30
2017-11-27T06:36:12.597Z,4.46
2017-11-27T06:38:40.256Z,4.08
2017-11-27T06:41:07.795Z,3.94
2017-11-27T06:43:35.312Z,3.92
2017-11-27T06:46:02.883Z,3.90
2017-11-27T06:48:30.398Z,4.22
2017-11-27T06:50:57.994Z,4.15
2017-11-27T06:53:25.643Z,4.16
2017-11-27T06:55:53.156Z,3.84
2017-11-27T06:58:20.701Z,4.12
2017-11-27T07:00:48.628Z,3.96
2017-11-27T07:03:16.208Z,4.01
2017-11-27T07:05:43.775Z,3.94
2017-11-27T07:08:11.334Z,3.93
2017-11-27T07:10:38.884Z,3.93
2017-11-27T07:13:06.442Z,3.99
2017-11-27T07:15:34.605Z,4.13
2017-11-27T07:18:02.128Z,4.25
2017-11-27T07:20:29.660Z,4.21
2017-11-27T07:22:57.201Z,4.43
2017-11-27T07:25:24.748Z,4.44
2017-11-27T07:27:52.260Z,4.54
2017-11-27T07:30:20.072Z,4.54
2017-11-27T07:32:47.584Z,4.39
2017-11-27T07:35:15.095Z,4.82
2017-11-27T07:37:48.265Z,4.71
2017-11-27T07:40:15.776Z,4.86
2017-11-27T07:42:43.293Z,4.90
2017-11-27T07:45:10.871Z,4.96
2017-11-27T07:47:38.415Z,5.17
2017-11-27T07:50:05.991Z,5.24
2017-11-27T07:52:33.941Z,5.45
2017-11-27T07:55:01.474Z,5.08
2017-11-27T07:57:28.995Z,5.33
2017-11-27T07:59:56.818Z,5.22
2017-11-27T08:02:24.382Z,5.10
2017-11-27T08:04:51.896Z,5.10
2017-11-27T08:07:19.465Z,5.24
2017-11-27T08:09:46.991Z,5.47
2017-11-27T08:12:14.544Z,5.41
2017-11-27T08:14:42.264Z,5.27
2017-11-27T08:17:09.796Z,5.22
2017-11-27T08:19:37.316Z,5.15
2017-11-27T08:22:05.039Z,5.23
2017-11-27T08:24:32.549Z,5.33
2017-11-27T08:27:00.992Z,5.53
2017-11-27T08:29:28.556Z,5.37
2017-11-27T08:31:56.136Z,5.57
2017-11-27T08:34:23.652Z,5.35
2017-11-27T08:36:51.320Z,5.48
2017-11-27T08:39:18.837Z,5.48
2017-11-27T08:41:46.349Z,5.63
2017-11-27T08:44:14.113Z,5.92
2017-11-27T08:46:41.636Z,5.98
2017-11-27T08:49:09.162Z,5.89
2017-11-27T08:51:36.882Z,5.79
2017-11-27T08:54:04.426Z,6.02
2017-11-27T08:56:31.960Z,5.50
2017-11-27T08:58:59.516Z,5.82
2017-11-27T09:01:27.036Z,5.70
2017-11-27T09:03:54.586Z,6.07
2017-11-27T09:06:22.352Z,5.83
2017-11-27T09:08:49.908Z,6.11
2017-11-27T09:11:17.464Z,6.36
2017-11-27T09:13:45.167Z,7.96
2017-11-27T09:16:12.689Z,10.00
2017-11-27T09:18:40.205Z,11.80
2017-11-27T09:21:07.807Z,14.01
2017-11-27T09:23:35.366Z,13.70
2017-11-27T09:26:03.028Z,14.58
2017-11-27T09:28:30.772Z,15.34
2017-11-27T09:30:58.304Z,15.39
2017-11-27T09:33:25.823Z,16.51
2017-11-27T09:35:53.571Z,15.98
2017-11-27T09:38:21.132Z,14.82
2017-11-27T09:40:48.688Z,14.58
2017-11-27T09:43:16.264Z,15.49
2017-11-27T09:45:44.100Z,15.74
2017-11-27T09:48:11.625Z,17.30
2017-11-27T09:50:39.483Z,15.83
2017-11-27T09:53:07.016Z,13.03
2017-11-27T09:55:34.560Z,11.77
2017-11-27T09:58:02.344Z,10.69
2017-11-27T10:00:29.859Z,9.64
2017-11-27T10:02:57.380Z,8.94
2017-11-27T10:05:25.178Z,8.16
2017-11-27T10:07:52.701Z,7.90
2017-11-27T10:10:20.224Z,8.07
2017-11-27T10:12:48.009Z,7.96
2017-11-27T10:15:15.542Z,7.96
2017-11-27T10:17:43.087Z,8.02
2017-11-27T10:20:10.658Z,7.80
2017-11-27T10:22:38.218Z,7.74
2017-11-27T10:25:05.732Z,7.99
2017-11-27T10:27:33.519Z,7.58
2017-11-27T10:30:01.061Z,7.79
2017-11-27T10:32:28.660Z,7.66
2017-11-27T10:34:56.229Z,7.84
2017-11-27T10:37:23.783Z,7.47
2017-11-27T10:39:51.300Z,7.55
2017-11-27T10:42:18.896Z,7.59
2017-11-27T10:44:46.454Z,7.70
2017-11-27T10:47:14.012Z,7.60
2017-11-27T10:49:41.756Z,7.69
2017-11-27T10:52:09.280Z,7.36
2017-11-27T10:54:36.821Z,7.58
2017-11-27T10:57:04.658Z,7.51
2017-11-27T10:59:32.218Z,7.41
2017-11-27T11:01:59.727Z,7.68
2017-11-27T11:04:27.415Z,7.32
2017-11-27T11:06:54.934Z,7.50
2017-11-27T11:09:22.469Z,7.70
2017-11-27T11:11:50.200Z,7.85
2017-11-27T11:14:17.747Z,8.14
2017-11-27T11:16:45.268Z,8.65
2017-11-27T11:19:12.981Z,8.45
2017-11-27T11:21:40.504Z,9.62
2017-11-27T11:24:08.031Z,9.73
2017-11-27T11:26:35.965Z,9.53
2017-11-27T11:29:03.481Z,9.51
2017-11-27T11:31:31.000Z,9.08
2017-11-27T11:33:58.565Z,8.73
2017-11-27T11:36:26.119Z,9.04
2017-11-27T11:38:53.677Z,9.03
2017-11-27T11:41:21.438Z,9.12
2017-11-27T11:43:48.998Z,9.83
2017-11-27T11:46:16.518Z,9.31
2017-11-27T11:48:44.308Z,9.95
2017-11-27T11:51:11.840Z,9.88
2017-11-27T11:53:39.386Z,9.71
2017-11-27T11:56:06.960Z,10.51
2017-11-27T11:58:34.481Z,10.63
2017-11-27T12:01:02.013Z,10.58
2017-11-27T12:03:29.787Z,9.91
2017-11-27T12:05:57.299Z,9.95
2017-11-27T12:08:24.824Z,9.43
2017-11-27T12:10:52.760Z,9.96
2017-11-27T12:13:20.295Z,9.91
2017-11-27T12:15:47.825Z,9.91
2017-11-27T12:18:15.381Z,9.61
2017-11-27T12:20:42.914Z,9.34
2017-11-27T12:23:10.457Z,9.39
2017-11-27T12:25:38.016Z,8.83
2017-11-27T12:28:05.557Z,8.95
2017-11-27T12:30:33.072Z,9.29
2017-11-27T12:33:01.106Z,8.73
2017-11-27T12:35:28.685Z,8.64
2017-11-27T12:37:56.401Z,8.57
2017-11-27T12:40:24.107Z,8.85
2017-11-27T12:42:51.784Z,8.21
2017-11-27T12:45:19.322Z,8.61
2017-11-27T12:47:47.060Z,8.81
2017-11-27T12:50:14.630Z,8.22
2017-11-27T12:52:42.290Z,8.82
2017-11-27T12:55:09.902Z,8.72
2017-11-27T12:57:37.470Z,8.99
2017-11-27T13:00:05.072Z,8.49
2017-11-27T13:02:32.661Z,8.67
2017-11-27T13:05:00.426Z,8.62
2017-11-27T13:07:27.956Z,8.69
2017-11-27T13:09:55.702Z,8.65
2017-11-27T13:12:23.222Z,8.43
2017-11-27T13:14:50.758Z,8.62
2017-11-27T13:17:18.488Z,8.88
2017-11-27T13:19:46.070Z,7.74
2017-11-27T13:22:13.614Z,7.95
2017-11-27T13:24:41.501Z,7.92
2017-11-27T13:27:09.154Z,8.32
2017-11-27T13:29:36.701Z,7.63
2017-11-27T13:32:04.572Z,7.79
2017-11-27T13:34:32.127Z,8.16
2017-11-27T13:36:59.793Z,7.73
2017-11-27T13:39:27.552Z,7.88
2017-11-27T13:41:55.144Z,7.90
2017-11-27T13:44:22.772Z,7.82
2017-11-27T13:46:50.640Z,8.21
2017-11-27T13:49:18.202Z,7.90
2017-11-27T13:51:45.761Z,8.20
2017-11-27T13:54:13.317Z,7.96
2017-11-27T13:56:41.028Z,7.73
2017-11-27T13:59:08.555Z,7.67
2017-11-27T14:01:36.612Z,7.62
2017-11-27T14:04:04.579Z,7.97
2017-11-27T14:06:32.548Z,7.51
2017-11-27T14:09:00.933Z,7.73
2017-11-27T14:11:28.577Z,7.48
2017-11-27T14:13:56.482Z,7.75
2017-11-27T14:16:24.318Z,7.72
2017-11-27T14:18:52.186Z,7.65
2017-11-27T14:21:20.052Z,7.79
2017-11-27T14:23:48.136Z,7.70
2017-11-27T14:26:15.735Z,7.42
2017-11-27T14:28:43.544Z,7.64
2017-11-27T14:31:12.235Z,7.77
2017-11-27T14:33:40.613Z,7.64
2017-11-27T14:36:08.374Z,7.61
2017-11-27T14:38:36.268Z,7.74
2017-11-27T14:41:04.114Z,7.74
2017-11-27T14:43:32.078Z,7.60
2017-11-27T14:46:01.035Z,7.54
2017-11-27T14:48:29.042Z,7.69
2017-11-27T14:50:56.952Z,7.67
2017-11-27T14:53:25.092Z,7.75
2017-11-27T14:55:53.560Z,7.67
2017-11-27T14:58:21.336Z,7.64
2017-11-27T15:00:49.614Z,7.44
2017-11-27T15:03:17.626Z,7.96
2017-11-27T15:05:45.517Z,7.53
2017-11-27T15:08:13.456Z,7.70
2017-11-27T15:10:41.437Z,7.30
2017-11-27T15:13:09.397Z,7.79
2017-11-27T15:15:37.928Z,7.65
2017-11-27T15:18:05.654Z,7.43
2017-11-27T15:20:34.093Z,7.53
2017-11-27T15:23:02.245Z,7.54
2017-11-27T15:25:30.650Z,7.73
2017-11-27T15:27:58.728Z,7.75
2017-11-27T15:30:27.110Z,7.40
2017-11-27T15:32:55.024Z,7.59
2017-11-27T15:35:23.073Z,7.78
2017-11-27T15:37:51.197Z,7.68
2017-11-27T15:40:19.150Z,7.15
2017-11-27T15:42:46.946Z,7.24
2017-11-27T15:45:14.794Z,7.59
2017-11-27T15:47:42.609Z,7.37
2017-11-27T15:50:11.023Z,7.65
2017-11-27T15:52:41.265Z,7.50
2017-11-27T15:55:09.827Z,7.72
2017-11-27T15:57:38.242Z,7.23
2017-11-27T16:00:06.313Z,7.46
2017-11-27T16:02:34.253Z,7.51
2017-11-27T16:05:03.112Z,7.42
2017-11-27T16:07:31.719Z,7.42
2017-11-27T16:10:00.610Z,7.23
2017-11-27T16:12:28.584Z,7.24
2017-11-27T16:14:57.442Z,7.47
2017-11-27T16:17:25.333Z,7.70
2017-11-27T16:19:53.317Z,7.41
2017-11-27T16:22:23.206Z,7.33
2017-11-27T16:24:52.108Z,7.29
2017-11-27T16:27:20.229Z,7.20
2017-11-27T16:29:49.260Z,7.41
2017-11-27T16:32:17.560Z,7.33
2017-11-27T16:34:45.729Z,7.69
2017-11-27T16:37:13.843Z,7.18
2017-11-27T16:39:41.770Z,7.50
2017-11-27T16:42:09.437Z,7.88
2017-11-27T16:44:37.701Z,7.79
2017-11-27T16:47:05.630Z,7.19
2017-11-27T16:49:33.640Z,7.66
2017-11-27T16:52:01.821Z,7.43
2017-11-27T16:54:29.807Z,7.37
2017-11-27T16:56:57.625Z,7.42
2017-11-27T16:59:27.255Z,7.28
2017-11-27T17:01:55.230Z,7.37
2017-11-27T17:04:22.978Z,7.45
2017-11-27T17:06:51.162Z,7.24
2017-11-27T17:09:19.334Z,7.05
2017-11-27T17:11:48.375Z,7.41
2017-11-27T17:14:16.537Z,7.72
2017-11-27T17:16:44.484Z,7.38
2017-11-27T17:19:14.383Z,7.23
2017-11-27T17:21:42.118Z,7.05
2017-11-27T17:24:09.911Z,7.60
2017-11-27T17:26:37.502Z,7.22
2017-11-27T17:29:05.335Z,7.26
2017-11-27T17:31:33.306Z,7.56
2017-11-27T17:34:01.084Z,7.64
2017-11-27T17:36:29.353Z,7.32
2017-11-27T17:38:57.041Z,7.33
2017-11-27T17:41:24.874Z,7.39
2017-11-27T17:43:52.748Z,7.31
2017-11-27T17:46:20.350Z,7.39
2017-11-27T17:48:47.976Z,7.27
2017-11-27T17:51:15.937Z,7.52
2017-11-27T17:53:44.632Z,7.31
2017-11-27T17:56:12.497Z,7.40
2017-11-27T17:58:40.858Z,7.23
2017-11-27T18:01:08.801Z,7.29
2017-11-27T18:03:36.810Z,7.30
2017-11-27T18:06:05.378Z,7.39
2017-11-27T18:08:33.198Z,7.64
2017-11-27T18:11:00.923Z,7.44
2017-11-27T18:13:29.028Z,7.39
2017-11-27T18:15:56.866Z,7.25
2017-11-27T18:18:24.819Z,7.45
2017-11-27T18:20:53.203Z,7.18
2017-11-27T18:23:20.797Z,7.36
2017-11-27T18:25:48.823Z,7.35
2017-11-27T18:28:16.521Z,7.62
2017-11-27T18:30:44.294Z,7.48
2017-11-27T18:33:12.160Z,7.37
2017-11-27T18:35:40.202Z,7.34
2017-11-27T18:38:07.954Z,7.21
2017-11-27T18:40:35.736Z,7.52
2017-11-27T18:43:03.784Z,7.43
2017-11-27T18:45:32.244Z,7.28
2017-11-27T18:48:00.644Z,7.47
2017-11-27T18:50:28.611Z,7.39
2017-11-27T18:52:56.381Z,7.56
2017-11-27T18:55:24.137Z,7.33
2017-11-27T18:57:52.213Z,7.27
2017-11-27T19:00:19.974Z,7.87
2017-11-27T19:02:47.944Z,7.52
2017-11-27T19:05:16.705Z,7.24
2017-11-27T19:07:45.417Z,7.68
2017-11-27T19:10:13.180Z,7.35
2017-11-27T19:12:41.054Z,7.54
2017-11-27T19:15:09.647Z,7.28
2017-11-27T19:17:37.496Z,7.63
2017-11-27T19:20:05.258Z,7.47
2017-11-27T19:22:33.148Z,7.32
2017-11-27T19:25:00.852Z,7.20
2017-11-27T19:27:29.989Z,7.17
2017-11-27T19:29:57.730Z,7.74
2017-11-27T19:32:25.534Z,7.33
2017-11-27T19:34:53.380Z,7.57
2017-11-27T19:37:21.359Z,7.24
2017-11-27T19:39:49.317Z,7.44
2017-11-27T19:42:17.375Z,7.43
2017-11-27T19:44:45.256Z,7.17
2017-11-27T19:47:13.133Z,7.10
2017-11-27T19:49:41.294Z,7.77
2017-11-27T19:52:09.021Z,7.29
2017-11-27T19:54:36.933Z,7.15
2017-11-27T19:57:05.018Z,7.41
2017-11-27T19:59:32.703Z,7.52
2017-11-27T20:02:00.833Z,7.29
2017-11-27T20:04:29.105Z,7.84
2017-11-27T20:06:57.076Z,7.69
2017-11-27T20:09:24.945Z,7.55
2017-11-27T20:11:53.129Z,7.54
2017-11-27T20:14:20.947Z,7.60
2017-11-27T20:16:49.437Z,7.32
2017-11-27T20:19:17.982Z,7.43
2017-11-27T20:21:46.735Z,7.40
2017-11-27T20:24:14.599Z,7.07
2017-11-27T20:26:42.362Z,7.41
2017-11-27T20:29:11.166Z,7.53
2017-11-27T20:31:40.045Z,7.59
2017-11-27T20:34:08.131Z,7.40
2017-11-27T20:36:36.697Z,7.45
2017-11-27T20:39:04.673Z,7.44
2017-11-27T20:41:32.863Z,7.20
2017-11-27T20:44:00.982Z,7.41
2017-11-27T20:46:28.935Z,7.20
2017-11-27T20:48:57.863Z,7.34
2017-11-27T20:51:26.639Z,7.29
2017-11-27T20:53:55.138Z,7.30
2017-11-27T20:56:23.826Z,7.24
2017-11-27T20:58:52.001Z,7.23
2017-11-27T21:01:19.769Z,6.98
2017-11-27T21:03:47.628Z,7.02
2017-11-27T21:06:15.606Z,7.14
2017-11-27T21:08:43.470Z,7.06
2017-11-27T21:11:11.738Z,7.42
2017-11-27T21:13:39.617Z,7.41
2017-11-27T21:16:07.203Z,7.37
2017-11-27T21:18:35.138Z,7.07
2017-11-27T21:21:03.063Z,7.39
2017-11-27T21:23:31.646Z,7.01
2017-11-27T21:26:00.331Z,7.11
2017-11-27T21:28:28.243Z,7.37
2017-11-27T21:30:56.206Z,7.22
2017-11-27T21:33:24.176Z,7.21
2017-11-27T21:35:52.144Z,7.34
2017-11-27T21:38:19.978Z,7.45
2017-11-27T21:40:48.660Z,7.45
2017-11-27T21:43:16.810Z,7.31
2017-11-27T21:45:44.659Z,6.89
2017-11-27T21:48:12.806Z,7.06
2017-11-27T21:50:40.776Z,7.09
2017-11-27T21:53:08.603Z,7.11
2017-11-27T21:55:36.724Z,6.96
2017-11-27T21:58:04.732Z,7.20
2017-11-27T22:00:32.463Z,7.09
2017-11-27T22:03:00.314Z,7.09
2017-11-27T22:05:29.099Z,6.93
2017-11-27T22:07:56.824Z,7.06
2017-11-27T22:10:24.531Z,6.96
2017-11-27T22:12:52.560Z,7.16
2017-11-27T22:15:20.771Z,7.15
2017-11-27T22:17:48.377Z,7.06
2017-11-27T22:20:16.003Z,7.10
2017-11-27T22:22:43.755Z,7.02
2017-11-27T22:25:11.503Z,7.14
2017-11-27T22:27:39.190Z,7.32
2017-11-27T22:30:07.035Z,7.07
2017-11-27T22:32:35.317Z,7.13
2017-11-27T22:35:03.188Z,7.11
2017-11-27T22:37:33.015Z,7.08
2017-11-27T22:40:00.679Z,7.51
2017-11-27T22:42:28.776Z,7.28
2017-11-27T22:44:56.390Z,7.11
2017-11-27T22:47:23.964Z,7.00
2017-11-27T22:49:52.537Z,7.07
2017-11-27T22:52:20.113Z,7.13
2017-11-27T22:54:47.874Z,7.42
2017-11-27T22:57:15.773Z,7.07
2017-11-27T22:59:45.515Z,6.99
2017-11-27T23:02:13.302Z,6.97
2017-11-27T23:04:40.864Z,7.29
2017-11-27T23:07:08.420Z,7.05
2017-11-27T23:09:36.389Z,7.12
2017-11-27T23:12:03.961Z,6.89
2017-11-27T23:14:32.327Z,7.09
2017-11-27T23:16:59.884Z,7.06
2017-11-27T23:19:27.547Z,6.89
2017-11-27T23:21:55.069Z,7.10
2017-11-27T23:24:22.665Z,7.00
2017-11-27T23:26:50.242Z,7.15
2017-11-27T23:29:17.785Z,7.19
2017-11-27T23:31:45.548Z,7.09
2017-11-27T23:34:13.210Z,7.28
2017-11-27T23:36:40.724Z,7.10
2017-11-27T23:39:08.641Z,7.09
2017-11-27T23:41:36.184Z,7.15
2017-11-27T23:44:04.673Z,7.04
2017-11-27T23:46:32.376Z,7.28
2017-11-27T23:48:59.894Z,7.06
2017-11-27T23:51:27.420Z,7.20
2017-11-27T23:53:55.206Z,7.14
2017-11-27T23:56:22.776Z,7.17
2017-11-27T23:58:50.337Z,7.21
